Time;durP1;ratioP1;P1;durP2;ratioP2;P2;SDS_P1;SDS_P2;PMS_P1;PMS_P2;Temp;Humidity;BMP_temperature;BMP_pressure;BME280_temperature;BME280_humidity;BME280_pressure;Samples;Min_cycle;Max_cycle;Signal;HPM_P1;HPM_P2
2021/12/12 00:00:59;;;;;;;;;;;23.70;49.70;;;;;;1595632;74;732;-57
2021/12/12 00:03:05;;;;;;;;;;;23.70;49.70;;;;;;1599374;74;791;-57
2021/12/12 00:05:09;;;;;;;;;;;23.70;49.80;;;;;;1583817;74;2091;-57
2021/12/12 00:07:11;;;;;;;;;;;23.60;49.70;;;;;;1580429;74;2460;-55
2021/12/12 00:09:15;;;;;;;;;;;23.80;49.80;;;;;;1594244;74;733;-58
2021/12/12 00:11:18;;;;;;;;;;;23.70;49.70;;;;;;1586164;74;1816;-58
2021/12/12 00:13:22;;;;;;;;;;;23.60;49.60;;;;;;1600112;74;1952;-57
2021/12/12 00:15:24;;;;;;;;;;;23.80;49.80;;;;;;1595977;74;777;-58
2021/12/12 00:17:26;;;;;;;;;;;23.70;49.80;;;;;;1589756;74;1121;-57
2021/12/12 00:19:28;;;;;;;;;;;23.70;49.80;;;;;;1585195;74;750;-56
2021/12/12 00:21:30;;;;;;;;;;;23.60;49.70;;;;;;1596657;74;720;-56
2021/12/12 00:23:32;;;;;;;;;;;23.60;49.70;;;;;;1574806;74;683;-56
2021/12/12 00:25:41;;;;;;;;;;;23.70;49.90;;;;;;1578689;74;759;-57
2021/12/12 00:27:44;;;;;;;;;;;23.60;49.70;;;;;;1588201;73;1145;-58
2021/12/12 00:29:46;;;;;;;;;;;23.70;49.90;;;;;;1600286;74;754;-57
2021/12/12 00:31:48;;;;;;;;;;;23.70;50.00;;;;;;1598000;74;762;-57
2021/12/12 00:33:51;;;;;;;;;;;23.70;49.90;;;;;;1588521;74;1937;-57
2021/12/12 00:35:53;;;;;;;;;;;23.70;49.90;;;;;;1586797;74;769;-57
2021/12/12 00:38:02;;;;;;;;;;;23.70;50.00;;;;;;1581543;74;1106;-57
2021/12/12 00:40:18;;;;;;;;;;;23.70;50.00;;;;;;1582344;74;1841;-56
2021/12/12 00:42:24;;;;;;;;;;;23.70;49.80;;;;;;1579332;73;724;-56
2021/12/12 00:44:26;;;;;;;;;;;23.70;49.80;;;;;;1581262;74;911;-56
2021/12/12 00:46:28;;;;;;;;;;;23.70;49.80;;;;;;1588507;74;1167;-56
2021/12/12 00:48:30;;;;;;;;;;;23.70;49.80;;;;;;1597246;74;802;-57
2021/12/12 00:50:33;;;;;;;;;;;23.70;49.80;;;;;;1576395;74;795;-57
2021/12/12 00:52:35;;;;;;;;;;;23.70;49.80;;;;;;1598734;74;724;-57
2021/12/12 00:54:37;;;;;;;;;;;23.60;49.70;;;;;;1586641;74;1935;-57
2021/12/12 00:56:38;;;;;;;;;;;23.70;49.80;;;;;;1575248;74;1185;-57
2021/12/12 00:58:40;;;;;;;;;;;23.70;49.70;;;;;;1582023;74;773;-58
2021/12/12 01:00:48;;;;;;;;;;;23.70;49.80;;;;;;1590658;74;774;-57
2021/12/12 01:02:48;;;;;;;;;;;23.70;50.00;;;;;;1596377;74;1737;-57
2021/12/12 01:04:51;;;;;;;;;;;23.70;50.00;;;;;;1592504;74;780;-56
2021/12/12 01:06:54;;;;;;;;;;;23.70;50.00;;;;;;1585736;74;1132;-57
2021/12/12 01:08:57;;;;;;;;;;;23.70;50.00;;;;;;1593829;74;773;-55
2021/12/12 01:11:00;;;;;;;;;;;23.60;49.70;;;;;;1585729;73;778;-57
2021/12/12 01:13:03;;;;;;;;;;;23.60;49.70;;;;;;1599264;74;789;-55
2021/12/12 01:15:07;;;;;;;;;;;23.70;49.90;;;;;;1592375;74;1926;-55
2021/12/12 01:17:13;;;;;;;;;;;23.70;49.90;;;;;;1599477;74;1973;-57
2021/12/12 01:19:16;;;;;;;;;;;23.60;49.80;;;;;;1585127;74;951;-58
2021/12/12 01:21:20;;;;;;;;;;;23.60;49.90;;;;;;1586564;74;694;-57
2021/12/12 01:23:26;;;;;;;;;;;23.70;50.00;;;;;;1590057;74;770;-57
2021/12/12 01:25:30;;;;;;;;;;;23.70;50.00;;;;;;1579985;74;1854;-58
2021/12/12 01:27:32;;;;;;;;;;;23.60;49.90;;;;;;1591645;73;1633;-57
2021/12/12 01:29:34;;;;;;;;;;;23.70;50.00;;;;;;1589512;74;809;-57
2021/12/12 01:31:39;;;;;;;;;;;23.60;49.90;;;;;;1595965;74;738;-56
2021/12/12 01:33:41;;;;;;;;;;;23.70;50.00;;;;;;1576665;74;1934;-55
2021/12/12 01:35:43;;;;;;;;;;;23.70;50.00;;;;;;1597211;74;781;-57
2021/12/12 01:38:50;;;;;;;;;;;23.70;50.00;;;;;;1573663;74;1130;-56
2021/12/12 01:39:49;;;;;;;;;;;23.60;49.90;;;;;;1597574;74;1468;-56
2021/12/12 01:42:02;;;;;;;;;;;23.70;50.00;;;;;;1600368;74;779;-57
2021/12/12 01:44:05;;;;;;;;;;;23.70;50.00;;;;;;1581038;74;975;-57
2021/12/12 01:46:09;;;;;;;;;;;23.70;50.00;;;;;;1583941;74;1147;-57
2021/12/12 01:48:21;;;;;;;;;;;23.60;49.90;;;;;;1582524;74;1666;-56
2021/12/12 01:50:30;;;;;;;;;;;23.60;49.90;;;;;;1593592;74;745;-57
2021/12/12 01:52:32;;;;;;;;;;;23.60;49.90;;;;;;1580127;74;2083;-57
2021/12/12 01:54:43;;;;;;;;;;;23.60;49.90;;;;;;1588279;74;1908;-57
2021/12/12 01:56:42;;;;;;;;;;;23.60;49.80;;;;;;1578695;74;1613;-57
2021/12/12 01:58:45;;;;;;;;;;;23.60;49.90;;;;;;1589051;74;662;-58
2021/12/12 02:00:49;;;;;;;;;;;23.60;49.90;;;;;;1597473;74;785;-57
2021/12/12 02:02:50;;;;;;;;;;;23.60;49.90;;;;;;1588759;74;1832;-58
2021/12/12 02:04:57;;;;;;;;;;;23.60;49.90;;;;;;1585574;74;775;-57
2021/12/12 02:06:58;;;;;;;;;;;23.60;49.90;;;;;;1594933;74;1189;-57
2021/12/12 02:09:00;;;;;;;;;;;23.60;49.90;;;;;;1598290;73;783;-56
2021/12/12 02:11:03;;;;;;;;;;;23.60;49.90;;;;;;1600249;74;743;-57
2021/12/12 02:13:07;;;;;;;;;;;23.60;49.90;;;;;;1592858;74;723;-57
2021/12/12 02:15:09;;;;;;;;;;;23.60;49.90;;;;;;1597471;74;1924;-57
2021/12/12 02:17:17;;;;;;;;;;;23.60;49.90;;;;;;1593967;74;1156;-56
2021/12/12 02:19:17;;;;;;;;;;;23.60;49.90;;;;;;1595275;73;1872;-56
2021/12/12 02:21:25;;;;;;;;;;;23.60;50.00;;;;;;1595225;74;716;-56
2021/12/12 02:35:20;;;;;;;;;;;23.60;50.10;;;;;;1595829;74;1913;-57
2021/12/12 02:37:15;;;;;;;;;;;23.60;50.10;;;;;;1601041;72;219570;-66
2021/12/12 02:39:17;;;;;;;;;;;23.70;50.20;;;;;;1600120;74;735;-66
2021/12/12 02:41:19;;;;;;;;;;;23.60;50.10;;;;;;1595919;74;737;-67
2021/12/12 02:43:22;;;;;;;;;;;23.60;50.10;;;;;;1596980;74;802;-67
2021/12/12 02:45:26;;;;;;;;;;;23.60;50.10;;;;;;1595969;74;1198;-67
2021/12/12 02:47:36;;;;;;;;;;;23.70;50.20;;;;;;1598393;74;1676;-66
2021/12/12 02:49:53;;;;;;;;;;;23.60;50.00;;;;;;1594276;74;1485;-66
2021/12/12 02:51:43;;;;;;;;;;;23.70;50.20;;;;;;1602092;74;1547;-67
2021/12/12 02:53:47;;;;;;;;;;;23.60;50.10;;;;;;1598018;74;763;-66
2021/12/12 02:55:50;;;;;;;;;;;23.60;50.10;;;;;;1606490;74;1925;-66
2021/12/12 02:57:53;;;;;;;;;;;23.60;50.10;;;;;;1591095;74;752;-66
2021/12/12 02:59:55;;;;;;;;;;;23.60;50.00;;;;;;1596868;72;861;-68
2021/12/12 03:01:58;;;;;;;;;;;23.60;50.00;;;;;;1602350;74;807;-66
2021/12/12 03:04:00;;;;;;;;;;;23.60;50.00;;;;;;1596553;74;804;-66
2021/12/12 03:06:02;;;;;;;;;;;23.60;50.00;;;;;;1600123;72;1255;-67
2021/12/12 03:08:04;;;;;;;;;;;23.60;50.00;;;;;;1596976;72;743;-67
2021/12/12 03:10:07;;;;;;;;;;;23.60;49.90;;;;;;1598278;74;778;-67
2021/12/12 03:12:13;;;;;;;;;;;23.60;49.90;;;;;;1600054;73;791;-67
2021/12/12 03:14:15;;;;;;;;;;;23.60;50.00;;;;;;1594540;74;2136;-67
2021/12/12 03:16:17;;;;;;;;;;;23.60;50.00;;;;;;1601214;74;1064;-67
2021/12/12 03:18:21;;;;;;;;;;;23.60;50.00;;;;;;1589168;72;769;-67
2021/12/12 03:20:24;;;;;;;;;;;23.60;50.00;;;;;;1598170;74;1933;-67
2021/12/12 03:22:26;;;;;;;;;;;23.60;50.00;;;;;;1600092;74;736;-68
2021/12/12 03:24:28;;;;;;;;;;;23.60;50.00;;;;;;1589754;74;922;-66
2021/12/12 03:26:30;;;;;;;;;;;23.60;50.00;;;;;;1599317;72;1145;-67
2021/12/12 03:28:34;;;;;;;;;;;23.60;50.00;;;;;;1589919;72;794;-66
2021/12/12 03:30:36;;;;;;;;;;;23.60;50.00;;;;;;1603982;72;795;-67
2021/12/12 03:32:38;;;;;;;;;;;23.70;50.10;;;;;;1585334;73;680;-66
2021/12/12 03:34:41;;;;;;;;;;;23.60;50.00;;;;;;1587378;74;1936;-65
2021/12/12 03:36:43;;;;;;;;;;;23.70;50.10;;;;;;1591163;73;1937;-66
2021/12/12 03:38:50;;;;;;;;;;;23.70;50.00;;;;;;1604462;72;799;-66
2021/12/12 03:40:52;;;;;;;;;;;23.70;50.00;;;;;;1594294;74;997;-68
2021/12/12 03:42:54;;;;;;;;;;;23.70;50.00;;;;;;1584704;74;801;-67
2021/12/12 03:44:56;;;;;;;;;;;23.70;50.00;;;;;;1600162;74;781;-67
2021/12/12 03:47:00;;;;;;;;;;;23.70;49.90;;;;;;1598611;72;1248;-69
2021/12/12 03:49:02;;;;;;;;;;;23.70;49.80;;;;;;1596775;72;744;-68
2021/12/12 03:51:04;;;;;;;;;;;23.80;49.70;;;;;;1586146;72;855;-68
2021/12/12 03:53:06;;;;;;;;;;;23.80;49.70;;;;;;1586613;72;664;-67
2021/12/12 03:55:08;;;;;;;;;;;23.80;49.70;;;;;;1597955;74;1936;-67
2021/12/12 03:57:10;;;;;;;;;;;23.90;49.70;;;;;;1588576;74;1099;-67
2021/12/12 03:59:12;;;;;;;;;;;23.90;49.50;;;;;;1592859;74;698;-67
2021/12/12 04:01:16;;;;;;;;;;;23.90;49.50;;;;;;1600736;74;812;-67
2021/12/12 04:03:18;;;;;;;;;;;23.90;49.40;;;;;;1601481;74;786;-67
2021/12/12 04:05:20;;;;;;;;;;;23.90;49.40;;;;;;1592698;74;1096;-67
2021/12/12 04:07:23;;;;;;;;;;;23.90;49.40;;;;;;1584610;72;694;-67
2021/12/12 04:09:26;;;;;;;;;;;23.90;49.50;;;;;;1602189;74;769;-67
2021/12/12 04:11:33;;;;;;;;;;;23.80;49.40;;;;;;1595666;74;753;-69
2021/12/12 04:13:39;;;;;;;;;;;23.70;49.60;;;;;;1596126;73;765;-68
2021/12/12 04:15:40;;;;;;;;;;;23.60;49.70;;;;;;1597662;74;1952;-66
2021/12/12 04:17:42;;;;;;;;;;;23.50;50.00;;;;;;1592359;74;790;-67
2021/12/12 04:19:45;;;;;;;;;;;23.50;50.30;;;;;;1599928;74;809;-69
2021/12/12 04:21:47;;;;;;;;;;;23.40;50.40;;;;;;1595291;74;817;-67
2021/12/12 04:23:49;;;;;;;;;;;23.30;50.50;;;;;;1598917;72;839;-68
2021/12/12 04:25:51;;;;;;;;;;;23.30;50.60;;;;;;1582609;74;1105;-67
2021/12/12 04:27:53;;;;;;;;;;;23.30;50.80;;;;;;1578164;74;781;-68
2021/12/12 04:29:55;;;;;;;;;;;23.30;50.90;;;;;;1581901;74;779;-67
2021/12/12 04:31:58;;;;;;;;;;;23.30;51.00;;;;;;1577152;74;664;-67
2021/12/12 04:34:00;;;;;;;;;;;23.20;51.00;;;;;;1577224;74;770;-66
2021/12/12 04:36:02;;;;;;;;;;;23.20;51.00;;;;;;1577992;74;1911;-66
2021/12/12 04:38:04;;;;;;;;;;;23.20;51.10;;;;;;1577157;74;782;-66
2021/12/12 04:40:08;;;;;;;;;;;23.20;51.10;;;;;;1577228;74;665;-67
2021/12/12 04:42:14;;;;;;;;;;;23.20;51.20;;;;;;1569002;74;650;-66
2021/12/12 04:44:20;;;;;;;;;;;23.20;51.30;;;;;;1578115;74;1232;-66
2021/12/12 04:46:25;;;;;;;;;;;23.10;51.30;;;;;;1577180;73;1130;-66
2021/12/12 04:50:55;;;;;;;;;;;23.20;51.30;;;;;;1577295;74;1653;-66
2021/12/12 04:53:01;;;;;;;;;;;23.20;51.20;;;;;;1577144;74;697;-66
2021/12/12 04:55:07;;;;;;;;;;;23.20;51.20;;;;;;1577192;74;1923;-67
2021/12/12 04:57:11;;;;;;;;;;;23.20;51.30;;;;;;1582691;74;1121;-67
2021/12/12 04:59:14;;;;;;;;;;;23.20;51.30;;;;;;1600084;74;796;-67
2021/12/12 05:01:18;;;;;;;;;;;23.20;51.30;;;;;;1592238;74;1372;-67
2021/12/12 05:03:21;;;;;;;;;;;23.20;51.20;;;;;;1597481;74;713;-67
2021/12/12 05:05:25;;;;;;;;;;;23.20;51.30;;;;;;1596913;73;1830;-67
2021/12/12 05:07:38;;;;;;;;;;;23.20;51.30;;;;;;1587787;74;941;-67
2021/12/12 05:09:42;;;;;;;;;;;23.20;51.30;;;;;;1582171;74;866;-63
2021/12/12 05:11:54;;;;;;;;;;;23.20;51.30;;;;;;1606646;73;681;-67
2021/12/12 05:13:57;;;;;;;;;;;23.20;51.20;;;;;;1607783;74;1921;-66
2021/12/12 05:16:00;;;;;;;;;;;23.20;51.20;;;;;;1594393;74;1932;-66
2021/12/12 05:18:04;;;;;;;;;;;23.20;51.20;;;;;;1593120;74;701;-67
2021/12/12 05:20:07;;;;;;;;;;;23.20;51.10;;;;;;1596196;72;730;-67
2021/12/12 05:22:10;;;;;;;;;;;23.20;51.10;;;;;;1606701;74;812;-67
2021/12/12 05:24:12;;;;;;;;;;;23.20;51.10;;;;;;1600937;72;823;-68
2021/12/12 05:26:15;;;;;;;;;;;23.20;51.10;;;;;;1599462;74;1158;-67
2021/12/12 05:28:20;;;;;;;;;;;23.30;51.20;;;;;;1593944;74;720;-67
2021/12/12 05:30:24;;;;;;;;;;;23.30;51.00;;;;;;1592063;74;997;-67
2021/12/12 05:32:26;;;;;;;;;;;23.30;50.80;;;;;;1597698;74;789;-66
2021/12/12 05:34:34;;;;;;;;;;;23.40;50.60;;;;;;1589646;74;672;-66
2021/12/12 05:36:33;;;;;;;;;;;23.50;50.70;;;;;;1602216;74;1934;-66
2021/12/12 05:38:35;;;;;;;;;;;23.50;50.60;;;;;;1602025;72;826;-67
2021/12/12 05:40:38;;;;;;;;;;;23.40;50.50;;;;;;1590296;74;757;-68
2021/12/12 05:42:40;;;;;;;;;;;23.50;50.60;;;;;;1596354;74;801;-65
2021/12/12 05:44:42;;;;;;;;;;;23.50;50.40;;;;;;1584800;74;752;-68
2021/12/12 05:46:44;;;;;;;;;;;23.50;50.40;;;;;;1603715;74;1126;-67
2021/12/12 05:48:46;;;;;;;;;;;23.50;50.50;;;;;;1598690;74;827;-68
2021/12/12 05:50:47;;;;;;;;;;;23.60;50.20;;;;;;1603452;72;753;-66
2021/12/12 05:52:54;;;;;;;;;;;23.70;50.00;;;;;;1597607;74;722;-66
2021/12/12 05:54:53;;;;;;;;;;;23.80;49.60;;;;;;1606847;72;1608;-67
2021/12/12 05:56:55;;;;;;;;;;;24.00;49.40;;;;;;1598773;74;1188;-67
2021/12/12 05:58:57;;;;;;;;;;;24.00;49.30;;;;;;1594210;74;715;-67
2021/12/12 06:01:00;;;;;;;;;;;24.00;49.20;;;;;;1597484;72;651;-66
2021/12/12 06:03:02;;;;;;;;;;;24.00;49.10;;;;;;1593729;74;726;-67
2021/12/12 06:05:04;;;;;;;;;;;24.10;49.10;;;;;;1607342;74;728;-68
2021/12/12 06:07:07;;;;;;;;;;;24.10;49.10;;;;;;1595679;74;1038;-68
2021/12/12 06:09:10;;;;;;;;;;;24.10;49.00;;;;;;1596839;72;709;-63
2021/12/12 06:11:13;;;;;;;;;;;24.10;49.00;;;;;;1598998;74;739;-63
2021/12/12 06:13:15;;;;;;;;;;;24.00;48.90;;;;;;1593865;73;721;-66
2021/12/12 06:15:18;;;;;;;;;;;24.00;49.20;;;;;;1607325;74;1940;-66
2021/12/12 06:17:20;;;;;;;;;;;23.90;49.20;;;;;;1598410;74;919;-66
2021/12/12 06:19:23;;;;;;;;;;;24.00;49.20;;;;;;1572869;75;719;-66
2021/12/12 06:21:25;;;;;;;;;;;24.00;49.20;;;;;;1591514;73;684;-63
2021/12/12 06:23:27;;;;;;;;;;;24.10;49.20;;;;;;1582526;73;694;-63
2021/12/12 06:25:29;;;;;;;;;;;24.00;49.00;;;;;;1596442;73;1125;-64
2021/12/12 06:27:31;;;;;;;;;;;24.10;49.00;;;;;;1583689;73;702;-63
2021/12/12 06:29:33;;;;;;;;;;;24.00;48.90;;;;;;1584703;74;709;-64
2021/12/12 06:31:38;;;;;;;;;;;24.10;49.00;;;;;;1590978;74;745;-63
2021/12/12 06:33:40;;;;;;;;;;;24.00;48.90;;;;;;1598593;72;740;-64
2021/12/12 06:35:42;;;;;;;;;;;24.00;49.00;;;;;;1588776;72;1932;-64
2021/12/12 06:37:44;;;;;;;;;;;24.00;48.90;;;;;;1598683;74;748;-64
2021/12/12 06:39:46;;;;;;;;;;;24.00;48.90;;;;;;1607288;74;831;-63
2021/12/12 06:41:48;;;;;;;;;;;24.00;48.90;;;;;;1589468;74;798;-64
2021/12/12 06:43:50;;;;;;;;;;;24.00;48.90;;;;;;1586395;74;789;-63
2021/12/12 06:45:52;;;;;;;;;;;24.00;48.90;;;;;;1591638;72;1169;-64
2021/12/12 06:47:54;;;;;;;;;;;23.90;48.90;;;;;;1588016;74;759;-65
2021/12/12 06:49:56;;;;;;;;;;;23.90;48.90;;;;;;1593309;74;783;-64
2021/12/12 06:51:58;;;;;;;;;;;23.90;48.90;;;;;;1591935;74;717;-63
2021/12/12 06:54:00;;;;;;;;;;;23.90;48.90;;;;;;1593463;74;688;-63
2021/12/12 06:56:03;;;;;;;;;;;23.90;48.90;;;;;;1584490;74;1949;-63
2021/12/12 06:58:05;;;;;;;;;;;23.90;48.90;;;;;;1588016;74;1926;-64
2021/12/12 07:00:09;;;;;;;;;;;23.90;48.90;;;;;;1582675;74;764;-62
2021/12/12 07:02:11;;;;;;;;;;;23.90;48.80;;;;;;1592731;74;735;-64
2021/12/12 07:04:15;;;;;;;;;;;23.80;48.80;;;;;;1586021;74;805;-64
2021/12/12 07:06:18;;;;;;;;;;;23.80;48.70;;;;;;1582551;74;1629;-65
2021/12/12 07:08:20;;;;;;;;;;;23.80;48.80;;;;;;1589983;74;1800;-64
2021/12/12 07:10:23;;;;;;;;;;;23.90;48.90;;;;;;1585310;74;706;-64
2021/12/12 07:12:25;;;;;;;;;;;23.80;48.80;;;;;;1588650;73;767;-64
2021/12/12 07:14:26;;;;;;;;;;;23.90;48.80;;;;;;1581002;74;744;-63
2021/12/12 07:16:28;;;;;;;;;;;23.80;48.80;;;;;;1541980;77;1953;-63
2021/12/12 07:18:31;;;;;;;;;;;23.80;48.70;;;;;;1591023;74;773;-63
2021/12/12 07:20:33;;;;;;;;;;;23.90;48.80;;;;;;1604757;74;808;-63
2021/12/12 07:22:35;;;;;;;;;;;23.80;48.70;;;;;;1602872;74;693;-64
2021/12/12 07:24:37;;;;;;;;;;;23.80;48.60;;;;;;1595734;72;750;-64
2021/12/12 07:26:38;;;;;;;;;;;23.80;48.60;;;;;;1606900;74;1184;-64
2021/12/12 07:28:41;;;;;;;;;;;23.80;48.60;;;;;;1581260;72;937;-64
2021/12/12 07:30:42;;;;;;;;;;;23.90;48.70;;;;;;1588544;72;741;-64
2021/12/12 07:32:44;;;;;;;;;;;23.80;48.60;;;;;;1596556;74;716;-65
2021/12/12 07:34:46;;;;;;;;;;;23.80;48.60;;;;;;1617889;72;843;-64
2021/12/12 07:36:50;;;;;;;;;;;23.80;48.60;;;;;;1593370;74;1950;-64
2021/12/12 07:38:56;;;;;;;;;;;23.80;48.60;;;;;;1599969;74;1868;-63
2021/12/12 07:40:58;;;;;;;;;;;23.80;48.60;;;;;;1543268;75;1848;-63
2021/12/12 07:43:00;;;;;;;;;;;23.80;48.60;;;;;;1542093;77;716;-64
2021/12/12 07:45:02;;;;;;;;;;;23.80;48.60;;;;;;1540386;77;803;-64
2021/12/12 07:47:04;;;;;;;;;;;23.80;48.50;;;;;;1542308;75;1106;-65
2021/12/12 07:49:06;;;;;;;;;;;23.80;48.50;;;;;;1546586;76;729;-64
2021/12/12 07:51:08;;;;;;;;;;;23.80;48.50;;;;;;1587251;74;673;-64
2021/12/12 07:53:10;;;;;;;;;;;23.70;48.50;;;;;;1585028;74;839;-64
2021/12/12 07:55:12;;;;;;;;;;;23.80;48.50;;;;;;1529141;77;797;-64
2021/12/12 07:57:14;;;;;;;;;;;23.80;48.50;;;;;;1560211;74;1934;-63
2021/12/12 07:59:16;;;;;;;;;;;23.80;48.50;;;;;;1589048;74;810;-64
2021/12/12 08:01:18;;;;;;;;;;;23.70;48.50;;;;;;1586549;74;785;-64
2021/12/12 08:03:23;;;;;;;;;;;23.70;48.50;;;;;;1603043;74;779;-64
2021/12/12 08:05:28;;;;;;;;;;;23.80;48.40;;;;;;1584003;74;1125;-63
2021/12/12 08:07:29;;;;;;;;;;;23.70;48.40;;;;;;1595009;72;1724;-64
2021/12/12 08:09:31;;;;;;;;;;;23.80;48.50;;;;;;1583201;72;720;-65
2021/12/12 08:11:33;;;;;;;;;;;23.80;48.40;;;;;;1599385;72;748;-62
2021/12/12 08:13:35;;;;;;;;;;;23.80;48.50;;;;;;1594756;74;713;-63
2021/12/12 08:15:37;;;;;;;;;;;23.70;48.40;;;;;;1584696;73;1117;-64
2021/12/12 08:17:40;;;;;;;;;;;23.80;48.50;;;;;;1590350;73;1944;-64
2021/12/12 08:19:42;;;;;;;;;;;23.80;48.40;;;;;;1598605;72;795;-63
2021/12/12 08:21:44;;;;;;;;;;;23.90;48.50;;;;;;1586492;74;667;-64
2021/12/12 08:23:46;;;;;;;;;;;23.80;48.40;;;;;;1587430;74;761;-65
2021/12/12 08:25:48;;;;;;;;;;;23.80;48.40;;;;;;1598789;72;1170;-65
2021/12/12 08:27:50;;;;;;;;;;;23.80;48.40;;;;;;1588623;74;708;-64
2021/12/12 08:29:52;;;;;;;;;;;23.80;48.40;;;;;;1582445;74;864;-65
2021/12/12 08:31:54;;;;;;;;;;;23.80;48.40;;;;;;1586921;73;717;-64
2021/12/12 08:33:56;;;;;;;;;;;23.80;48.40;;;;;;1581267;74;789;-63
2021/12/12 08:35:57;;;;;;;;;;;23.80;48.30;;;;;;1581585;71;223338;-59
2021/12/12 08:38:00;;;;;;;;;;;23.80;48.30;;;;;;1554643;74;1583;-58
2021/12/12 08:40:02;;;;;;;;;;;23.80;48.30;;;;;;1539822;75;749;-58
2021/12/12 08:42:04;;;;;;;;;;;23.80;48.30;;;;;;1550890;75;759;-58
2021/12/12 08:44:06;;;;;;;;;;;23.80;48.20;;;;;;1553100;75;857;-58
2021/12/12 08:46:09;;;;;;;;;;;23.90;48.30;;;;;;1556374;74;1189;-58
2021/12/12 08:48:11;;;;;;;;;;;23.80;48.30;;;;;;1554969;75;710;-58
2021/12/12 08:50:14;;;;;;;;;;;23.90;48.40;;;;;;1564982;74;776;-58
2021/12/12 08:52:21;;;;;;;;;;;23.90;48.30;;;;;;1551750;74;694;-58
2021/12/12 08:54:26;;;;;;;;;;;23.80;48.20;;;;;;1557263;75;651;-59
2021/12/12 08:56:42;;;;;;;;;;;23.90;48.30;;;;;;1556739;75;1920;-58
2021/12/12 08:58:35;;;;;;;;;;;23.90;48.30;;;;;;1555991;75;1565;-58
2021/12/12 09:00:38;;;;;;;;;;;23.90;48.30;;;;;;1568140;75;714;-58
2021/12/12 09:02:40;;;;;;;;;;;23.90;48.20;;;;;;1546933;75;758;-58
2021/12/12 09:04:43;;;;;;;;;;;24.00;48.10;;;;;;1566098;75;779;-59
2021/12/12 09:06:47;;;;;;;;;;;23.90;48.00;;;;;;1553378;75;1196;-58
2021/12/12 09:08:49;;;;;;;;;;;24.00;48.10;;;;;;1563072;75;1924;-58
2021/12/12 09:10:53;;;;;;;;;;;23.90;48.10;;;;;;1561855;75;722;-58
2021/12/12 09:12:56;;;;;;;;;;;23.90;47.80;;;;;;1560639;75;1962;-59
2021/12/12 09:15:14;;;;;;;;;;;23.70;43.50;;;;;;1554662;75;709;-59
2021/12/12 09:17:24;;;;;;;;;;;23.60;43.40;;;;;;1543091;75;1952;-56
2021/12/12 09:19:28;;;;;;;;;;;23.60;43.40;;;;;;1544359;75;1974;-57
2021/12/12 09:21:36;;;;;;;;;;;23.50;43.00;;;;;;1552971;75;699;-57
2021/12/12 09:23:40;;;;;;;;;;;23.50;42.60;;;;;;1552515;75;680;-55
2021/12/12 09:25:51;;;;;;;;;;;23.40;42.00;;;;;;1543611;75;724;-53
2021/12/12 09:27:54;;;;;;;;;;;23.30;41.70;;;;;;1537813;75;1070;-55
2021/12/12 09:29:58;;;;;;;;;;;23.30;41.40;;;;;;1540283;75;738;-55
2021/12/12 09:32:04;;;;;;;;;;;23.30;41.20;;;;;;1537756;75;1682;-55
2021/12/12 09:34:11;;;;;;;;;;;23.20;40.90;;;;;;1538316;75;1830;-54
2021/12/12 09:36:31;;;;;;;;;;;23.20;40.70;;;;;;1554015;74;1956;-57
2021/12/12 09:38:43;;;;;;;;;;;23.10;40.60;;;;;;1553017;75;700;-57
2021/12/12 09:40:59;;;;;;;;;;;23.20;40.80;;;;;;1537665;75;727;-57
2021/12/12 09:43:03;;;;;;;;;;;23.10;40.90;;;;;;1536677;75;1903;-58
2021/12/12 09:45:13;;;;;;;;;;;23.10;41.10;;;;;;1549876;75;836;-58
2021/12/12 09:47:46;;;;;;;;;;;23.10;41.10;;;;;;1534556;75;1208;-57
2021/12/12 09:52:23;;;;;;;;;;;23.10;41.10;;;;;;1540700;75;1697;-58
2021/12/12 09:54:27;;;;;;;;;;;23.10;41.00;;;;;;1539698;75;789;-57
2021/12/12 09:56:45;;;;;;;;;;;23.10;40.80;;;;;;1546018;75;2040;-57
2021/12/12 09:58:48;;;;;;;;;;;23.10;40.80;;;;;;1544444;75;976;-58
2021/12/12 10:00:56;;;;;;;;;;;23.10;40.70;;;;;;1542059;75;765;-58
2021/12/12 10:03:09;;;;;;;;;;;23.10;40.60;;;;;;1546524;75;1104;-58
2021/12/12 10:05:15;;;;;;;;;;;23.10;40.60;;;;;;1539579;75;2103;-59
2021/12/12 10:07:19;;;;;;;;;;;23.10;40.50;;;;;;1531846;75;1525;-59
2021/12/12 10:09:31;;;;;;;;;;;23.10;40.30;;;;;;1535256;75;1858;-59
2021/12/12 10:11:47;;;;;;;;;;;23.10;40.10;;;;;;1516936;77;1168;-58
2021/12/12 10:13:50;;;;;;;;;;;23.10;40.10;;;;;;1540013;75;1968;-59
2021/12/12 10:15:53;;;;;;;;;;;23.00;39.80;;;;;;1543108;75;1663;-59
2021/12/12 10:17:56;;;;;;;;;;;23.00;39.70;;;;;;1550042;75;1946;-59
2021/12/12 10:19:59;;;;;;;;;;;23.00;39.60;;;;;;1530566;75;1908;-58
2021/12/12 10:22:20;;;;;;;;;;;23.00;39.70;;;;;;1537035;75;713;-58
2021/12/12 10:24:23;;;;;;;;;;;23.00;39.70;;;;;;1541067;75;773;-57
2021/12/12 10:26:26;;;;;;;;;;;23.00;39.40;;;;;;1555869;75;1153;-58
2021/12/12 10:28:33;;;;;;;;;;;23.00;39.40;;;;;;1545817;75;724;-58
2021/12/12 10:30:35;;;;;;;;;;;23.00;39.40;;;;;;1505212;76;1380;-57
2021/12/12 10:32:48;;;;;;;;;;;22.90;39.30;;;;;;1544657;75;723;-58
2021/12/12 10:34:51;;;;;;;;;;;22.90;39.20;;;;;;1537393;75;795;-58
2021/12/12 10:37:00;;;;;;;;;;;22.90;39.10;;;;;;1542664;75;1975;-58
2021/12/12 10:39:06;;;;;;;;;;;22.90;39.00;;;;;;1544442;75;715;-58
2021/12/12 10:41:12;;;;;;;;;;;22.80;38.90;;;;;;1541820;75;760;-58
2021/12/12 10:43:22;;;;;;;;;;;22.80;39.00;;;;;;1530463;75;1824;-57
2021/12/12 10:45:21;;;;;;;;;;;22.80;39.10;;;;;;1542254;75;1630;-59
2021/12/12 10:47:30;;;;;;;;;;;22.80;39.20;;;;;;1536227;75;1211;-57
2021/12/12 10:49:52;;;;;;;;;;;22.70;39.10;;;;;;1539833;75;2033;-57
2021/12/12 10:52:07;;;;;;;;;;;22.70;39.00;;;;;;1534523;75;732;-58
2021/12/12 10:54:16;;;;;;;;;;;22.70;39.00;;;;;;1543546;75;751;-57
2021/12/12 10:56:30;;;;;;;;;;;22.70;38.90;;;;;;1538935;75;1313;-57
2021/12/12 10:58:43;;;;;;;;;;;22.70;38.90;;;;;;1511823;77;1906;-57
2021/12/12 11:00:47;;;;;;;;;;;22.60;38.70;;;;;;1540301;75;676;-59
2021/12/12 11:03:02;;;;;;;;;;;22.60;38.60;;;;;;1538513;75;725;-57
2021/12/12 11:05:06;;;;;;;;;;;22.60;38.50;;;;;;1542564;75;779;-58
2021/12/12 11:07:09;;;;;;;;;;;22.60;38.60;;;;;;1540146;75;1128;-58
2021/12/12 11:09:15;;;;;;;;;;;22.60;38.50;;;;;;1542547;75;770;-58
2021/12/12 11:11:19;;;;;;;;;;;22.60;38.20;;;;;;1544952;75;787;-57
2021/12/12 11:13:31;;;;;;;;;;;22.60;38.30;;;;;;1549869;75;752;-58
2021/12/12 11:15:40;;;;;;;;;;;22.60;38.30;;;;;;1543273;75;1967;-58
2021/12/12 11:17:44;;;;;;;;;;;22.60;38.40;;;;;;1543771;75;1971;-57
2021/12/12 11:19:56;;;;;;;;;;;22.50;38.40;;;;;;1543983;75;760;-58
2021/12/12 11:21:59;;;;;;;;;;;22.60;38.20;;;;;;1548709;75;800;-57
2021/12/12 11:24:03;;;;;;;;;;;22.50;38.10;;;;;;1541210;75;1912;-58
2021/12/12 11:26:07;;;;;;;;;;;22.50;38.10;;;;;;1545299;75;1185;-57
2021/12/12 11:28:10;;;;;;;;;;;22.50;38.10;;;;;;1541388;75;831;-57
2021/12/12 11:30:18;;;;;;;;;;;22.50;38.00;;;;;;1545994;75;728;-57
2021/12/12 11:32:19;;;;;;;;;;;22.50;38.00;;;;;;1545288;75;1609;-58
2021/12/12 11:34:23;;;;;;;;;;;22.40;37.90;;;;;;1542715;75;2155;-56
2021/12/12 11:36:28;;;;;;;;;;;22.40;37.80;;;;;;1537634;75;1145;-58
2021/12/12 11:38:48;;;;;;;;;;;22.40;37.90;;;;;;1547288;75;1936;-58
2021/12/12 11:40:52;;;;;;;;;;;22.30;37.90;;;;;;1543965;75;699;-57
2021/12/12 11:42:55;;;;;;;;;;;22.40;37.80;;;;;;1547595;75;1994;-58
2021/12/12 11:45:14;;;;;;;;;;;22.30;37.80;;;;;;1543193;75;1811;-56
2021/12/12 11:47:35;;;;;;;;;;;22.30;37.70;;;;;;1481295;78;1369;-59
2021/12/12 11:49:51;;;;;;;;;;;22.30;37.80;;;;;;1517056;75;916;-59
2021/12/12 11:51:54;;;;;;;;;;;22.30;37.70;;;;;;1548958;75;818;-57
2021/12/12 11:53:57;;;;;;;;;;;22.30;37.60;;;;;;1541680;77;1830;-57
2021/12/12 11:56:07;;;;;;;;;;;22.30;37.60;;;;;;1544015;77;719;-58
2021/12/12 11:58:27;;;;;;;;;;;22.20;37.50;;;;;;1540875;76;1928;-58
2021/12/12 12:00:30;;;;;;;;;;;22.30;38.70;;;;;;1542970;77;668;-58
2021/12/12 12:02:33;;;;;;;;;;;22.40;39.40;;;;;;1542036;75;1765;-59
2021/12/12 12:04:40;;;;;;;;;;;22.50;39.70;;;;;;1546622;77;734;-59
2021/12/12 12:06:52;;;;;;;;;;;22.60;39.90;;;;;;1542083;76;1616;-58
2021/12/12 12:09:12;;;;;;;;;;;22.70;40.30;;;;;;1542388;77;720;-59
2021/12/12 12:11:16;;;;;;;;;;;22.70;40.50;;;;;;1542306;77;747;-58
2021/12/12 12:13:19;;;;;;;;;;;22.80;40.60;;;;;;1542331;76;778;-59
2021/12/12 12:15:29;;;;;;;;;;;22.70;41.10;;;;;;1541636;77;775;-59
2021/12/12 12:17:49;;;;;;;;;;;22.60;41.90;;;;;;1541744;75;1955;-59
2021/12/12 12:20:09;;;;;;;;;;;22.60;42.50;;;;;;1535602;77;839;-58
2021/12/12 12:22:15;;;;;;;;;;;22.50;43.00;;;;;;1536280;76;749;-59
2021/12/12 12:24:26;;;;;;;;;;;22.40;43.10;;;;;;1526794;77;697;-59
2021/12/12 12:28:59;;;;;;;;;;;22.40;43.60;;;;;;1543857;76;1679;-58
2021/12/12 12:31:03;;;;;;;;;;;22.40;43.90;;;;;;1544403;77;678;-58
2021/12/12 12:33:15;;;;;;;;;;;22.40;44.00;;;;;;1539017;76;745;-59
2021/12/12 12:35:19;;;;;;;;;;;22.40;44.10;;;;;;1529074;77;763;-58
2021/12/12 12:37:39;;;;;;;;;;;22.50;44.30;;;;;;1527105;75;1969;-58
2021/12/12 12:39:42;;;;;;;;;;;22.50;44.40;;;;;;1541933;77;776;-58
2021/12/12 12:42:04;;;;;;;;;;;22.40;44.30;;;;;;1517990;76;1107;-58